Cdry Blue — ICOB — position and weather

sailwx.info

Track history (hours):
 
Tides and Currents Weather Stations Pressure Air Temp Water Temp Dewpoint Dewpoint Depression Visibility Wind Speed Wind Dir Waves Ship Positions

Cdry Blue

Last reported at 2017-May-24 06:25 UTC. Time now 2017-May-24 07:55 UTC.
Position N 39°37' W 000°11'.

Length 108 m; draft 6.2 m.

Type: Cargo ship. MMSI: 247289300.

Date/timePositionNaut miles runAvg speedWind from/ knotsBaromVisibWave heightAir tempDewpointWater temp
2017-May-24 06:25N 39°37' W 000°11'3 0.1
2017-May-23 07:45N 39°39' W 000°13'1 3.2
2017-May-23 07:25N 39°38' W 000°13'3110.2
2017-May-23 04:21N 39°55' E 000°22'411.7
2017-May-23 04:00N 39°57' E 000°26'611.8
2017-May-23 03:30N 40°01' E 000°32'611.7
2017-May-23 03:00N 40°04' E 000°38'611.5
2017-May-23 02:30N 40°08' E 000°44'611.5
2017-May-23 01:59N 40°12' E 000°50'511.5
2017-May-23 01:31N 40°15' E 000°56'611.5
2017-May-23 01:01N 40°18' E 001°02'611.6
2017-May-23 00:30N 40°21' E 001°08'611.6
2017-May-23 00:00N 40°25' E 001°14'611.5
2017-May-22 23:30N 40°29' E 001°20'611.8
2017-May-22 23:00N 40°34' E 001°25'612.2
2017-May-22 22:31N 40°38' E 001°30'612.1
2017-May-22 22:00N 40°43' E 001°35'612.1
2017-May-22 21:30N 40°47' E 001°41'612.1
2017-May-22 21:00N 40°52' E 001°46'612.3
2017-May-22 20:30N 40°56' E 001°51'612.2
2017-May-22 20:00N 41°01' E 001°56'612.3
2017-May-22 19:29N 41°06' E 002°01'612.0
2017-May-22 19:01N 41°11' E 002°06'611.7
2017-May-22 18:30N 41°16' E 002°10'5 9.3
2017-May-22 18:01N 41°21' E 002°10'1 1.1
2017-May-22 17:23N 41°21' E 002°09'0 0.0
2017-May-22 16:17N 41°21' E 002°09'0 0.0
2017-May-22 15:47N 41°21' E 002°09'0 0.0
2017-May-22 14:47N 41°21' E 002°09'0 0.0
2017-May-22 12:41N 41°21' E 002°09'0 0.0
2017-May-22 10:59N 41°21' E 002°09'0 0.0
2017-May-22 10:29N 41°21' E 002°09'0 0.0
2017-May-22 09:59N 41°21' E 002°09'0 0.0
2017-May-22 07:17N 41°21' E 002°09'1 1.1
2017-May-22 06:47N 41°21' E 002°10'1 4.4
2017-May-22 06:30N 41°19' E 002°10'4 8.3
2017-May-22 06:00N 41°16' E 002°13'2 4.5
2017-May-22 05:30N 41°14' E 002°15'610.4
2017-May-22 04:57N 41°10' E 002°20'511.0
2017-May-22 04:30N 41°06' E 002°24'611.1
2017-May-22 04:00N 41°02' E 002°29'611.0
2017-May-22 03:30N 40°58' E 002°34'511.1
2017-May-22 03:00N 40°54' E 002°38'611.1
2017-May-22 02:30N 40°49' E 002°43'611.2
2017-May-22 02:00N 40°45' E 002°48'611.4
2017-May-22 01:30N 40°41' E 002°53'611.5
2017-May-22 01:00N 40°36' E 002°58'611.8
2017-May-22 00:30N 40°32' E 003°03'612.0
2017-May-22 00:00N 40°28' E 003°08'611.5
2017-May-21 23:30N 40°23' E 003°13'2911.5
2017-May-21 21:00N 40°01' E 003°38'611.2
2017-May-21 20:30N 39°57' E 003°43'611.2
2017-May-21 20:00N 39°53' E 003°48'16310.7
2017-May-21 04:47N 39°01' E 007°08'310.4
2017-May-21 04:29N 38°60' E 007°12'510.2
2017-May-21 03:58N 38°58' E 007°18'510.0
2017-May-21 03:29N 38°56' E 007°23'510.1
2017-May-21 02:58N 38°54' E 007°30'5 9.7
2017-May-21 02:29N 38°53' E 007°35'5 9.5
2017-May-21 02:00N 38°51' E 007°41'5 9.7
2017-May-21 01:30N 38°50' E 007°47'5 9.5
2017-May-21 01:00N 38°48' E 007°53'5 9.4
2017-May-21 00:27N 38°47' E 007°59'4 9.2
2017-May-21 00:00N 38°46' E 008°04'5 9.0
2017-May-20 23:30N 38°44' E 008°10'4 9.0
2017-May-20 23:00N 38°43' E 008°15'5 9.2
2017-May-20 22:30N 38°42' E 008°21'5 9.5
2017-May-20 21:59N 38°41' E 008°27'5 9.9
2017-May-20 21:30N 38°41' E 008°33'510.0
2017-May-20 20:59N 38°40' E 008°40'510.3
2017-May-20 20:30N 38°40' E 008°46'6110.0
2017-May-20 14:24N 38°35' E 010°04'9 9.5
2017-May-20 13:30N 38°34' E 010°15'12110.1
2017-May-20 01:33N 38°26' E 012°48'110.4
2017-May-20 01:30N 38°26' E 012°49'510.3
2017-May-20 01:00N 38°26' E 012°56'510.1
2017-May-20 00:30N 38°25' E 013°02'510.0
2017-May-20 00:00N 38°25' E 013°08'5 9.7
2017-May-19 23:30N 38°25' E 013°15'5 9.7
2017-May-19 23:01N 38°24' E 013°21'510.3
2017-May-19 22:31N 38°24' E 013°27'510.5
2017-May-19 22:00N 38°24' E 013°34'510.7
2017-May-19 21:30N 38°24' E 013°41'510.9
2017-May-19 21:00N 38°23' E 013°48'611.1
2017-May-19 20:31N 38°23' E 013°55'611.2
2017-May-19 20:00N 38°22' E 014°02'611.0
2017-May-19 19:29N 38°21' E 014°09'510.9
2017-May-19 19:00N 38°21' E 014°16'711.0
2017-May-19 18:21N 38°20' E 014°25'411.1
2017-May-19 18:00N 38°20' E 014°30'611.0
2017-May-19 17:29N 38°20' E 014°37'511.1
2017-May-19 17:00N 38°20' E 014°44'611.0
2017-May-19 16:29N 38°19' E 014°51'511.2
2017-May-19 16:00N 38°19' E 014°58'510.8
2017-May-19 15:30N 38°20' E 015°05'510.7
2017-May-19 15:00N 38°20' E 015°12'1110.7
2017-May-19 14:00N 38°22' E 015°25'511.1
2017-May-19 13:31N 38°23' E 015°32'510.8
2017-May-19 13:00N 38°20' E 015°38'5 9.3
2017-May-19 12:31N 38°17' E 015°42'510.1
2017-May-19 12:00N 38°13' E 015°37'510.9
2017-May-19 11:31N 38°08' E 015°36'510.4
2017-May-19 11:00N 38°03' E 015°36'611.3
2017-May-19 10:31N 37°57' E 015°36'611.7
2017-May-19 10:00N 37°53' E 015°41'510.5
2017-May-19 09:30N 37°51' E 015°47'611.1
2017-May-19 09:00N 37°51' E 015°54'10610.3
2017-May-18 22:45N 39°14' E 017°18'311.4
2017-May-18 22:30N 39°17' E 017°18'3011.4
2017-May-18 19:54N 39°47' E 017°13'511.4
2017-May-18 19:30N 39°51' E 017°12'611.4
2017-May-18 18:57N 39°57' E 017°12'511.2
2017-May-18 18:29N 40°03' E 017°11'511.0
2017-May-18 18:00N 40°08' E 017°10'510.7
2017-May-18 17:30N 40°13' E 017°10'5 8.9
2017-May-18 17:00N 40°18' E 017°09'5 8.6
2017-May-18 16:27N 40°22' E 017°08'4 8.0
2017-May-18 15:59N 40°26' E 017°10'3 6.0
2017-May-18 15:25N 40°29' E 017°12'0 0.0
2017-May-18 14:55N 40°29' E 017°12'0 0.0
2017-May-18 14:19N 40°29' E 017°12'0 0.0
2017-May-18 13:28N 40°29' E 017°12'0 0.0
2017-May-18 12:52N 40°29' E 017°12'0 0.0
2017-May-18 12:28N 40°29' E 017°12'0 0.0
2017-May-18 11:55N 40°29' E 017°12'0 0.0
2017-May-18 11:22N 40°29' E 017°12'0 0.0
2017-May-18 10:58N 40°29' E 017°12'0 0.0
2017-May-18 10:25N 40°29' E 017°12'0 0.0
2017-May-18 09:58N 40°29' E 017°12'0 0.0
2017-May-18 09:28N 40°29' E 017°12'0 0.0
2017-May-18 08:58N 40°29' E 017°12'0 0.0
2017-May-18 08:28N 40°29' E 017°12'0 0.0
2017-May-18 07:55N 40°29' E 017°12'0 0.0
2017-May-18 07:28N 40°29' E 017°12'0 0.0
2017-May-18 06:49N 40°29' E 017°12'0 0.0
2017-May-18 06:22N 40°29' E 017°12'0 0.0
2017-May-18 05:55N 40°29' E 017°12'0 0.0
2017-May-18 05:28N 40°29' E 017°12'0 0.0
2017-May-18 04:55N 40°29' E 017°12'0 0.0
2017-May-18 04:25N 40°29' E 017°12'0 0.0
2017-May-18 03:58N 40°29' E 017°12'0 0.0
2017-May-18 03:28N 40°29' E 017°12'0 0.0
2017-May-18 02:55N 40°29' E 017°12'0 0.0
2017-May-18 02:28N 40°29' E 017°12'0 0.0
2017-May-18 01:55N 40°29' E 017°12'0 0.0
2017-May-18 01:28N 40°29' E 017°12'0 0.0
2017-May-18 00:52N 40°29' E 017°12'0 0.0
2017-May-18 00:25N 40°29' E 017°12'0 0.0
2017-May-17 23:58N 40°29' E 017°12'0 0.0
2017-May-17 23:25N 40°29' E 017°12'0 0.0
2017-May-17 22:58N 40°29' E 017°12'0 0.0
2017-May-17 22:25N 40°29' E 017°12'0 0.0
2017-May-17 21:58N 40°29' E 017°12'0 0.0
2017-May-17 21:22N 40°29' E 017°12'0 0.0
2017-May-17 20:49N 40°29' E 017°12'0 0.0
2017-May-17 20:25N 40°29' E 017°12'0 0.0
2017-May-17 19:55N 40°29' E 017°12'0 0.0
2017-May-17 19:19N 40°29' E 017°12'0 0.0
2017-May-17 18:58N 40°29' E 017°12'0 0.0
2017-May-17 18:22N 40°29' E 017°12'0 0.0
2017-May-17 17:58N 40°29' E 017°12'0 0.0
2017-May-17 17:25N 40°29' E 017°12'0 0.0
2017-May-17 16:58N 40°29' E 017°13'0 0.0
2017-May-17 16:13N 40°29' E 017°12'0 0.0
2017-May-17 15:55N 40°29' E 017°12'0 0.0
2017-May-17 15:28N 40°29' E 017°12'0 0.0
2017-May-17 14:55N 40°29' E 017°12'0 0.0
2017-May-17 13:55N 40°29' E 017°12'0 0.0
2017-May-17 13:22N 40°29' E 017°12'0 0.0
2017-May-17 12:52N 40°29' E 017°12'0 0.0
2017-May-17 12:25N 40°29' E 017°12'0 0.0
2017-May-17 11:58N 40°29' E 017°12'0 0.0
2017-May-17 11:16N 40°29' E 017°12'0 0.0
2017-May-17 10:58N 40°29' E 017°12'0 0.0
2017-May-17 10:13N 40°29' E 017°12'0 0.0
2017-May-17 09:55N 40°29' E 017°12'0 0.0
2017-May-17 09:25N 40°29' E 017°12'0 0.0
2017-May-17 08:49N 40°29' E 017°12'0 0.0
2017-May-17 08:28N 40°29' E 017°12'0 0.0
2017-May-17 07:55N 40°29' E 017°12'0 0.0
2017-May-17 07:28N 40°29' E 017°12'0 0.0
2017-May-17 06:52N 40°29' E 017°12'0 0.0
2017-May-17 06:28N 40°29' E 017°12'0 0.0
2017-May-17 05:55N 40°29' E 017°12'0 0.0
2017-May-17 05:25N 40°29' E 017°12'0 0.0
2017-May-17 04:58N 40°29' E 017°13'0 0.0
2017-May-17 04:25N 40°29' E 017°12'0 0.0
2017-May-17 03:55N 40°29' E 017°12'0 0.0
2017-May-17 03:28N 40°29' E 017°12'0 0.0
2017-May-17 02:52N 40°29' E 017°12'0 0.0
2017-May-17 02:25N 40°29' E 017°12'0 0.0
2017-May-17 01:58N 40°29' E 017°12'0 0.0
2017-May-17 01:28N 40°29' E 017°12'0 0.0
2017-May-17 00:58N 40°29' E 017°12'0 0.0
2017-May-17 00:25N 40°29' E 017°12'0 0.0
2017-May-16 23:55N 40°29' E 017°12'0 0.0
2017-May-16 23:22N 40°29' E 017°12'0 0.0
2017-May-16 22:58N 40°29' E 017°12'0 0.0
2017-May-16 22:28N 40°29' E 017°12'0 0.0
2017-May-16 21:58N 40°29' E 017°12'0 0.0
2017-May-16 21:19N 40°29' E 017°12'0 0.0
2017-May-16 20:55N 40°29' E 017°12'0 0.0
2017-May-16 20:22N 40°29' E 017°13'0 0.0
2017-May-16 19:58N 40°29' E 017°12'0 0.0
2017-May-16 19:28N 40°29' E 017°12'0 0.0
2017-May-16 18:55N 40°29' E 017°12'0 0.0
2017-May-16 18:28N 40°29' E 017°12'0 0.0
2017-May-16 17:58N 40°29' E 017°12'0 0.0
2017-May-16 16:31N 40°29' E 017°12'0 0.0
2017-May-16 16:25N 40°29' E 017°12'0 0.0
2017-May-16 15:55N 40°29' E 017°12'0 0.0
2017-May-16 15:28N 40°29' E 017°12'0 0.0
2017-May-16 14:55N 40°29' E 017°12'0 0.0
2017-May-16 14:28N 40°29' E 017°12'0 0.0
2017-May-16 13:28N 40°29' E 017°12'0 0.0
2017-May-16 12:16N 40°29' E 017°12'0 0.0
2017-May-16 11:55N 40°29' E 017°12'0 0.0
2017-May-16 11:25N 40°29' E 017°12'0 0.0
2017-May-16 10:55N 40°29' E 017°12'0 0.0
2017-May-16 10:22N 40°29' E 017°12'0 0.0
2017-May-16 09:58N 40°29' E 017°12'0 0.0
2017-May-16 09:22N 40°29' E 017°12'0 0.0
2017-May-16 08:58N 40°29' E 017°12'0 0.0
2017-May-16 08:28N 40°29' E 017°12'0 0.0
2017-May-16 07:58N 40°29' E 017°12'0 0.0
2017-May-16 07:28N 40°29' E 017°12'0 0.0
2017-May-16 06:55N 40°29' E 017°12'0 0.0
2017-May-16 05:25N 40°29' E 017°12'0 0.0
2017-May-16 04:58N 40°29' E 017°12'0 0.0
2017-May-16 04:25N 40°29' E 017°12'0 0.0
2017-May-16 03:58N 40°29' E 017°12'0 0.0
2017-May-16 03:28N 40°29' E 017°12'0 0.0
2017-May-16 02:55N 40°29' E 017°12'0 0.0
2017-May-16 02:19N 40°29' E 017°12'0 0.0
2017-May-16 01:58N 40°29' E 017°12'0 0.0
2017-May-16 01:28N 40°29' E 017°12'0 0.0
2017-May-16 00:52N 40°29' E 017°12'0 0.0
2017-May-16 00:28N 40°29' E 017°13'0 0.0
2017-May-15 23:55N 40°29' E 017°12'0 0.0
2017-May-15 23:25N 40°29' E 017°12'0 0.0
2017-May-15 22:58N 40°29' E 017°12'0 0.0
2017-May-15 22:25N 40°29' E 017°13'0 0.0
2017-May-15 21:55N 40°29' E 017°12'0 0.0
2017-May-15 21:25N 40°29' E 017°12'0 0.0
2017-May-15 20:58N 40°29' E 017°12'0 0.0
2017-May-15 20:28N 40°29' E 017°12'0 0.0
2017-May-15 19:58N 40°29' E 017°12'0 0.0
2017-May-15 19:19N 40°29' E 017°12'0 0.0
2017-May-15 18:58N 40°29' E 017°12'0 0.0
2017-May-15 18:25N 40°29' E 017°12'0 0.0
2017-May-15 17:52N 40°29' E 017°12'0 0.0
2017-May-15 17:25N 40°29' E 017°12'0 0.0
2017-May-15 16:58N 40°29' E 017°12'0 0.0
2017-May-15 16:28N 40°29' E 017°12'0 0.0
2017-May-15 15:58N 40°29' E 017°12'0 0.0
2017-May-15 15:28N 40°29' E 017°12'0 0.0
2017-May-15 14:49N 40°29' E 017°12'0 0.0
2017-May-15 13:55N 40°29' E 017°12'0 0.0
2017-May-15 13:25N 40°29' E 017°12'0 0.0
2017-May-15 12:58N 40°29' E 017°12'0 0.0
2017-May-15 12:28N 40°29' E 017°12'0 0.0
2017-May-15 11:58N 40°29' E 017°12'0 0.0
2017-May-15 11:22N 40°29' E 017°12'0 0.0
2017-May-15 10:46N 40°29' E 017°12'0 0.0
2017-May-15 10:28N 40°29' E 017°12'0 0.0
2017-May-15 09:58N 40°29' E 017°12'0 0.0
2017-May-15 09:25N 40°29' E 017°12'0 0.0
2017-May-15 08:58N 40°29' E 017°12'0 0.0
2017-May-15 08:25N 40°29' E 017°12'0 0.0
2017-May-15 07:58N 40°29' E 017°12'0 0.0
2017-May-15 06:13N 40°29' E 017°12'0 0.0
2017-May-15 05:58N 40°29' E 017°13'0 0.0
2017-May-15 05:13N 40°29' E 017°12'0 0.0
2017-May-15 04:52N 40°29' E 017°12'0 0.0
2017-May-15 04:28N 40°29' E 017°13'0 0.0
2017-May-15 03:55N 40°29' E 017°12'0 0.0
2017-May-15 03:22N 40°29' E 017°12'0 0.0
2017-May-15 02:58N 40°29' E 017°12'0 0.0
2017-May-15 02:25N 40°29' E 017°12'0 0.0
2017-May-15 01:55N 40°29' E 017°13'0 0.0
2017-May-15 01:28N 40°29' E 017°12'0 0.0
2017-May-15 00:55N 40°29' E 017°13'0 0.0
2017-May-15 00:28N 40°29' E 017°12'0 0.0
2017-May-14 23:58N 40°29' E 017°12'0 0.0
2017-May-14 23:28N 40°29' E 017°12'0 0.0
2017-May-14 22:58N 40°29' E 017°12'0 0.0
2017-May-14 22:28N 40°29' E 017°12'0 0.0
2017-May-14 21:55N 40°29' E 017°12'0 0.0
2017-May-14 21:25N 40°29' E 017°12'0 0.0
2017-May-14 20:55N 40°29' E 017°12'0 0.0
2017-May-14 20:13N 40°29' E 017°12'0 0.0
2017-May-14 19:58N 40°29' E 017°12'0 0.0
2017-May-14 19:22N 40°29' E 017°12'0 0.0
2017-May-14 18:40N 40°29' E 017°12'0 0.0
2017-May-14 18:25N 40°29' E 017°12'0 0.0
2017-May-14 17:58N 40°29' E 017°12'0 0.0
2017-May-14 17:28N 40°29' E 017°12'0 0.0
2017-May-14 16:58N 40°29' E 017°13'0 0.0
2017-May-14 16:28N 40°29' E 017°13'0 0.0
2017-May-14 15:58N 40°29' E 017°12'0 0.0
2017-May-14 15:25N 40°29' E 017°12'0 0.0
2017-May-14 14:55N 40°29' E 017°12'0 0.0
2017-May-14 14:10N 40°29' E 017°12'0 0.0
2017-May-14 13:28N 40°29' E 017°12'0 0.0
2017-May-14 12:58N 40°29' E 017°12'0 0.0
2017-May-14 12:25N 40°29' E 017°12'0 0.0
2017-May-14 11:55N 40°29' E 017°12'0 0.0
2017-May-14 11:25N 40°29' E 017°12'0 0.2
2017-May-14 10:59N 40°29' E 017°12'2 2.8
2017-May-14 10:23N 40°27' E 017°11'0 0.0
2017-May-14 09:38N 40°28' E 017°11'0 0.0
2017-May-14 09:29N 40°28' E 017°11'0 0.0
2017-May-14 08:59N 40°28' E 017°11'0 0.0
2017-May-14 08:20N 40°27' E 017°11'0 0.1
2017-May-14 07:59N 40°28' E 017°11'0 0.0
2017-May-14 07:29N 40°28' E 017°11'0 0.1
2017-May-14 06:59N 40°27' E 017°11'  
Track history (hours):
 
Tides and Currents Weather Stations Pressure Air Temp Water Temp Dewpoint Dewpoint Depression Visibility Wind Speed Wind Dir Waves Ship Positions

Cdry Blue

Last reported at 2017-May-24 06:25 UTC. Time now 2017-May-24 07:55 UTC.
Position N 39°37' W 000°11'.

Length 108 m; draft 6.2 m.

Type: Cargo ship. MMSI: 247289300.

Date/timePositionNaut miles runAvg speedWind from/ knotsBaromVisibWave heightAir tempDewpointWater temp
2017-May-24 06:25N 39°37' W 000°11'3 0.1
2017-May-23 07:45N 39°39' W 000°13'1 3.2
2017-May-23 07:25N 39°38' W 000°13'3110.2
2017-May-23 04:21N 39°55' E 000°22'411.7
2017-May-23 04:00N 39°57' E 000°26'611.8
2017-May-23 03:30N 40°01' E 000°32'611.7
2017-May-23 03:00N 40°04' E 000°38'611.5
2017-May-23 02:30N 40°08' E 000°44'611.5
2017-May-23 01:59N 40°12' E 000°50'511.5
2017-May-23 01:31N 40°15' E 000°56'611.5
2017-May-23 01:01N 40°18' E 001°02'611.6
2017-May-23 00:30N 40°21' E 001°08'611.6
2017-May-23 00:00N 40°25' E 001°14'611.5
2017-May-22 23:30N 40°29' E 001°20'611.8
2017-May-22 23:00N 40°34' E 001°25'612.2
2017-May-22 22:31N 40°38' E 001°30'612.1
2017-May-22 22:00N 40°43' E 001°35'612.1
2017-May-22 21:30N 40°47' E 001°41'612.1
2017-May-22 21:00N 40°52' E 001°46'612.3
2017-May-22 20:30N 40°56' E 001°51'612.2
2017-May-22 20:00N 41°01' E 001°56'612.3
2017-May-22 19:29N 41°06' E 002°01'612.0
2017-May-22 19:01N 41°11' E 002°06'611.7
2017-May-22 18:30N 41°16' E 002°10'5 9.3
2017-May-22 18:01N 41°21' E 002°10'1 1.1
2017-May-22 17:23N 41°21' E 002°09'0 0.0
2017-May-22 16:17N 41°21' E 002°09'0 0.0
2017-May-22 15:47N 41°21' E 002°09'0 0.0
2017-May-22 14:47N 41°21' E 002°09'0 0.0
2017-May-22 12:41N 41°21' E 002°09'0 0.0
2017-May-22 10:59N 41°21' E 002°09'0 0.0
2017-May-22 10:29N 41°21' E 002°09'0 0.0
2017-May-22 09:59N 41°21' E 002°09'0 0.0
2017-May-22 07:17N 41°21' E 002°09'1 1.1
2017-May-22 06:47N 41°21' E 002°10'1 4.4
2017-May-22 06:30N 41°19' E 002°10'4 8.3
2017-May-22 06:00N 41°16' E 002°13'2 4.5
2017-May-22 05:30N 41°14' E 002°15'610.4
2017-May-22 04:57N 41°10' E 002°20'511.0
2017-May-22 04:30N 41°06' E 002°24'611.1
2017-May-22 04:00N 41°02' E 002°29'611.0
2017-May-22 03:30N 40°58' E 002°34'511.1
2017-May-22 03:00N 40°54' E 002°38'611.1
2017-May-22 02:30N 40°49' E 002°43'611.2
2017-May-22 02:00N 40°45' E 002°48'611.4
2017-May-22 01:30N 40°41' E 002°53'611.5
2017-May-22 01:00N 40°36' E 002°58'611.8
2017-May-22 00:30N 40°32' E 003°03'612.0
2017-May-22 00:00N 40°28' E 003°08'611.5
2017-May-21 23:30N 40°23' E 003°13'2911.5
2017-May-21 21:00N 40°01' E 003°38'611.2
2017-May-21 20:30N 39°57' E 003°43'611.2
2017-May-21 20:00N 39°53' E 003°48'16310.7
2017-May-21 04:47N 39°01' E 007°08'310.4
2017-May-21 04:29N 38°60' E 007°12'510.2
2017-May-21 03:58N 38°58' E 007°18'510.0
2017-May-21 03:29N 38°56' E 007°23'510.1
2017-May-21 02:58N 38°54' E 007°30'5 9.7
2017-May-21 02:29N 38°53' E 007°35'5 9.5
2017-May-21 02:00N 38°51' E 007°41'5 9.7
2017-May-21 01:30N 38°50' E 007°47'5 9.5
2017-May-21 01:00N 38°48' E 007°53'5 9.4
2017-May-21 00:27N 38°47' E 007°59'4 9.2
2017-May-21 00:00N 38°46' E 008°04'5 9.0
2017-May-20 23:30N 38°44' E 008°10'4 9.0
2017-May-20 23:00N 38°43' E 008°15'5 9.2
2017-May-20 22:30N 38°42' E 008°21'5 9.5
2017-May-20 21:59N 38°41' E 008°27'5 9.9
2017-May-20 21:30N 38°41' E 008°33'510.0
2017-May-20 20:59N 38°40' E 008°40'510.3
2017-May-20 20:30N 38°40' E 008°46'6110.0
2017-May-20 14:24N 38°35' E 010°04'9 9.5
2017-May-20 13:30N 38°34' E 010°15'12110.1
2017-May-20 01:33N 38°26' E 012°48'110.4
2017-May-20 01:30N 38°26' E 012°49'510.3
2017-May-20 01:00N 38°26' E 012°56'510.1
2017-May-20 00:30N 38°25' E 013°02'510.0
2017-May-20 00:00N 38°25' E 013°08'5 9.7
2017-May-19 23:30N 38°25' E 013°15'5 9.7
2017-May-19 23:01N 38°24' E 013°21'510.3
2017-May-19 22:31N 38°24' E 013°27'510.5
2017-May-19 22:00N 38°24' E 013°34'510.7
2017-May-19 21:30N 38°24' E 013°41'510.9
2017-May-19 21:00N 38°23' E 013°48'611.1
2017-May-19 20:31N 38°23' E 013°55'611.2
2017-May-19 20:00N 38°22' E 014°02'611.0
2017-May-19 19:29N 38°21' E 014°09'510.9
2017-May-19 19:00N 38°21' E 014°16'711.0
2017-May-19 18:21N 38°20' E 014°25'411.1
2017-May-19 18:00N 38°20' E 014°30'611.0
2017-May-19 17:29N 38°20' E 014°37'511.1
2017-May-19 17:00N 38°20' E 014°44'611.0
2017-May-19 16:29N 38°19' E 014°51'511.2
2017-May-19 16:00N 38°19' E 014°58'510.8
2017-May-19 15:30N 38°20' E 015°05'510.7
2017-May-19 15:00N 38°20' E 015°12'1110.7
2017-May-19 14:00N 38°22' E 015°25'511.1
2017-May-19 13:31N 38°23' E 015°32'510.8
2017-May-19 13:00N 38°20' E 015°38'5 9.3
2017-May-19 12:31N 38°17' E 015°42'510.1
2017-May-19 12:00N 38°13' E 015°37'510.9
2017-May-19 11:31N 38°08' E 015°36'510.4
2017-May-19 11:00N 38°03' E 015°36'611.3
2017-May-19 10:31N 37°57' E 015°36'611.7
2017-May-19 10:00N 37°53' E 015°41'510.5
2017-May-19 09:30N 37°51' E 015°47'611.1
2017-May-19 09:00N 37°51' E 015°54'10610.3
2017-May-18 22:45N 39°14' E 017°18'311.4
2017-May-18 22:30N 39°17' E 017°18'3011.4
2017-May-18 19:54N 39°47' E 017°13'511.4
2017-May-18 19:30N 39°51' E 017°12'611.4
2017-May-18 18:57N 39°57' E 017°12'511.2
2017-May-18 18:29N 40°03' E 017°11'511.0
2017-May-18 18:00N 40°08' E 017°10'510.7
2017-May-18 17:30N 40°13' E 017°10'5 8.9
2017-May-18 17:00N 40°18' E 017°09'5 8.6
2017-May-18 16:27N 40°22' E 017°08'4 8.0
2017-May-18 15:59N 40°26' E 017°10'3 6.0
2017-May-18 15:25N 40°29' E 017°12'0 0.0
2017-May-18 14:55N 40°29' E 017°12'0 0.0
2017-May-18 14:19N 40°29' E 017°12'0 0.0
2017-May-18 13:28N 40°29' E 017°12'0 0.0
2017-May-18 12:52N 40°29' E 017°12'0 0.0
2017-May-18 12:28N 40°29' E 017°12'0 0.0
2017-May-18 11:55N 40°29' E 017°12'0 0.0
2017-May-18 11:22N 40°29' E 017°12'0 0.0
2017-May-18 10:58N 40°29' E 017°12'0 0.0
2017-May-18 10:25N 40°29' E 017°12'0 0.0
2017-May-18 09:58N 40°29' E 017°12'0 0.0
2017-May-18 09:28N 40°29' E 017°12'0 0.0
2017-May-18 08:58N 40°29' E 017°12'0 0.0
2017-May-18 08:28N 40°29' E 017°12'0 0.0
2017-May-18 07:55N 40°29' E 017°12'0 0.0
2017-May-18 07:28N 40°29' E 017°12'0 0.0
2017-May-18 06:49N 40°29' E 017°12'0 0.0
2017-May-18 06:22N 40°29' E 017°12'0 0.0
2017-May-18 05:55N 40°29' E 017°12'0 0.0
2017-May-18 05:28N 40°29' E 017°12'0 0.0
2017-May-18 04:55N 40°29' E 017°12'0 0.0
2017-May-18 04:25N 40°29' E 017°12'0 0.0
2017-May-18 03:58N 40°29' E 017°12'0 0.0
2017-May-18 03:28N 40°29' E 017°12'0 0.0
2017-May-18 02:55N 40°29' E 017°12'0 0.0
2017-May-18 02:28N 40°29' E 017°12'0 0.0
2017-May-18 01:55N 40°29' E 017°12'0 0.0
2017-May-18 01:28N 40°29' E 017°12'0 0.0
2017-May-18 00:52N 40°29' E 017°12'0 0.0
2017-May-18 00:25N 40°29' E 017°12'0 0.0
2017-May-17 23:58N 40°29' E 017°12'0 0.0
2017-May-17 23:25N 40°29' E 017°12'0 0.0
2017-May-17 22:58N 40°29' E 017°12'0 0.0
2017-May-17 22:25N 40°29' E 017°12'0 0.0
2017-May-17 21:58N 40°29' E 017°12'0 0.0
2017-May-17 21:22N 40°29' E 017°12'0 0.0
2017-May-17 20:49N 40°29' E 017°12'0 0.0
2017-May-17 20:25N 40°29' E 017°12'0 0.0
2017-May-17 19:55N 40°29' E 017°12'0 0.0
2017-May-17 19:19N 40°29' E 017°12'0 0.0
2017-May-17 18:58N 40°29' E 017°12'0 0.0
2017-May-17 18:22N 40°29' E 017°12'0 0.0
2017-May-17 17:58N 40°29' E 017°12'0 0.0
2017-May-17 17:25N 40°29' E 017°12'0 0.0
2017-May-17 16:58N 40°29' E 017°13'0 0.0
2017-May-17 16:13N 40°29' E 017°12'0 0.0
2017-May-17 15:55N 40°29' E 017°12'0 0.0
2017-May-17 15:28N 40°29' E 017°12'0 0.0
2017-May-17 14:55N 40°29' E 017°12'0 0.0
2017-May-17 13:55N 40°29' E 017°12'0 0.0
2017-May-17 13:22N 40°29' E 017°12'0 0.0
2017-May-17 12:52N 40°29' E 017°12'0 0.0
2017-May-17 12:25N 40°29' E 017°12'0 0.0
2017-May-17 11:58N 40°29' E 017°12'0 0.0
2017-May-17 11:16N 40°29' E 017°12'0 0.0
2017-May-17 10:58N 40°29' E 017°12'0 0.0
2017-May-17 10:13N 40°29' E 017°12'0 0.0
2017-May-17 09:55N 40°29' E 017°12'0 0.0
2017-May-17 09:25N 40°29' E 017°12'0 0.0
2017-May-17 08:49N 40°29' E 017°12'0 0.0
2017-May-17 08:28N 40°29' E 017°12'0 0.0
2017-May-17 07:55N 40°29' E 017°12'0 0.0
2017-May-17 07:28N 40°29' E 017°12'0 0.0
2017-May-17 06:52N 40°29' E 017°12'0 0.0
2017-May-17 06:28N 40°29' E 017°12'0 0.0
2017-May-17 05:55N 40°29' E 017°12'0 0.0
2017-May-17 05:25N 40°29' E 017°12'0 0.0
2017-May-17 04:58N 40°29' E 017°13'0 0.0
2017-May-17 04:25N 40°29' E 017°12'0 0.0
2017-May-17 03:55N 40°29' E 017°12'0 0.0
2017-May-17 03:28N 40°29' E 017°12'0 0.0
2017-May-17 02:52N 40°29' E 017°12'0 0.0
2017-May-17 02:25N 40°29' E 017°12'0 0.0
2017-May-17 01:58N 40°29' E 017°12'0 0.0
2017-May-17 01:28N 40°29' E 017°12'0 0.0
2017-May-17 00:58N 40°29' E 017°12'0 0.0
2017-May-17 00:25N 40°29' E 017°12'0 0.0
2017-May-16 23:55N 40°29' E 017°12'0 0.0
2017-May-16 23:22N 40°29' E 017°12'0 0.0
2017-May-16 22:58N 40°29' E 017°12'0 0.0
2017-May-16 22:28N 40°29' E 017°12'0 0.0
2017-May-16 21:58N 40°29' E 017°12'0 0.0
2017-May-16 21:19N 40°29' E 017°12'0 0.0
2017-May-16 20:55N 40°29' E 017°12'0 0.0
2017-May-16 20:22N 40°29' E 017°13'0 0.0
2017-May-16 19:58N 40°29' E 017°12'0 0.0
2017-May-16 19:28N 40°29' E 017°12'0 0.0
2017-May-16 18:55N 40°29' E 017°12'0 0.0
2017-May-16 18:28N 40°29' E 017°12'0 0.0
2017-May-16 17:58N 40°29' E 017°12'0 0.0
2017-May-16 16:31N 40°29' E 017°12'0 0.0
2017-May-16 16:25N 40°29' E 017°12'0 0.0
2017-May-16 15:55N 40°29' E 017°12'0 0.0
2017-May-16 15:28N 40°29' E 017°12'0 0.0
2017-May-16 14:55N 40°29' E 017°12'0 0.0
2017-May-16 14:28N 40°29' E 017°12'0 0.0
2017-May-16 13:28N 40°29' E 017°12'0 0.0
2017-May-16 12:16N 40°29' E 017°12'0 0.0
2017-May-16 11:55N 40°29' E 017°12'0 0.0
2017-May-16 11:25N 40°29' E 017°12'0 0.0
2017-May-16 10:55N 40°29' E 017°12'0 0.0
2017-May-16 10:22N 40°29' E 017°12'0 0.0
2017-May-16 09:58N 40°29' E 017°12'0 0.0
2017-May-16 09:22N 40°29' E 017°12'0 0.0
2017-May-16 08:58N 40°29' E 017°12'0 0.0
2017-May-16 08:28N 40°29' E 017°12'0 0.0
2017-May-16 07:58N 40°29' E 017°12'0 0.0
2017-May-16 07:28N 40°29' E 017°12'0 0.0
2017-May-16 06:55N 40°29' E 017°12'0 0.0
2017-May-16 05:25N 40°29' E 017°12'0 0.0
2017-May-16 04:58N 40°29' E 017°12'0 0.0
2017-May-16 04:25N 40°29' E 017°12'0 0.0
2017-May-16 03:58N 40°29' E 017°12'0 0.0
2017-May-16 03:28N 40°29' E 017°12'0 0.0
2017-May-16 02:55N 40°29' E 017°12'0 0.0
2017-May-16 02:19N 40°29' E 017°12'0 0.0
2017-May-16 01:58N 40°29' E 017°12'0 0.0
2017-May-16 01:28N 40°29' E 017°12'0 0.0
2017-May-16 00:52N 40°29' E 017°12'0 0.0
2017-May-16 00:28N 40°29' E 017°13'0 0.0
2017-May-15 23:55N 40°29' E 017°12'0 0.0
2017-May-15 23:25N 40°29' E 017°12'0 0.0
2017-May-15 22:58N 40°29' E 017°12'0 0.0
2017-May-15 22:25N 40°29' E 017°13'0 0.0
2017-May-15 21:55N 40°29' E 017°12'0 0.0
2017-May-15 21:25N 40°29' E 017°12'0 0.0
2017-May-15 20:58N 40°29' E 017°12'0 0.0
2017-May-15 20:28N 40°29' E 017°12'0 0.0
2017-May-15 19:58N 40°29' E 017°12'0 0.0
2017-May-15 19:19N 40°29' E 017°12'0 0.0
2017-May-15 18:58N 40°29' E 017°12'0 0.0
2017-May-15 18:25N 40°29' E 017°12'0 0.0
2017-May-15 17:52N 40°29' E 017°12'0 0.0
2017-May-15 17:25N 40°29' E 017°12'0 0.0
2017-May-15 16:58N 40°29' E 017°12'0 0.0
2017-May-15 16:28N 40°29' E 017°12'0 0.0
2017-May-15 15:58N 40°29' E 017°12'0 0.0
2017-May-15 15:28N 40°29' E 017°12'0 0.0
2017-May-15 14:49N 40°29' E 017°12'0 0.0
2017-May-15 13:55N 40°29' E 017°12'0 0.0
2017-May-15 13:25N 40°29' E 017°12'0 0.0
2017-May-15 12:58N 40°29' E 017°12'0 0.0
2017-May-15 12:28N 40°29' E 017°12'0 0.0
2017-May-15 11:58N 40°29' E 017°12'0 0.0
2017-May-15 11:22N 40°29' E 017°12'0 0.0
2017-May-15 10:46N 40°29' E 017°12'0 0.0
2017-May-15 10:28N 40°29' E 017°12'0 0.0
2017-May-15 09:58N 40°29' E 017°12'0 0.0
2017-May-15 09:25N 40°29' E 017°12'0 0.0
2017-May-15 08:58N 40°29' E 017°12'0 0.0
2017-May-15 08:25N 40°29' E 017°12'0 0.0
2017-May-15 07:58N 40°29' E 017°12'0 0.0
2017-May-15 06:13N 40°29' E 017°12'0 0.0
2017-May-15 05:58N 40°29' E 017°13'0 0.0
2017-May-15 05:13N 40°29' E 017°12'0 0.0
2017-May-15 04:52N 40°29' E 017°12'0 0.0
2017-May-15 04:28N 40°29' E 017°13'0 0.0
2017-May-15 03:55N 40°29' E 017°12'0 0.0
2017-May-15 03:22N 40°29' E 017°12'0 0.0
2017-May-15 02:58N 40°29' E 017°12'0 0.0
2017-May-15 02:25N 40°29' E 017°12'0 0.0
2017-May-15 01:55N 40°29' E 017°13'0 0.0
2017-May-15 01:28N 40°29' E 017°12'0 0.0
2017-May-15 00:55N 40°29' E 017°13'0 0.0
2017-May-15 00:28N 40°29' E 017°12'0 0.0
2017-May-14 23:58N 40°29' E 017°12'0 0.0
2017-May-14 23:28N 40°29' E 017°12'0 0.0
2017-May-14 22:58N 40°29' E 017°12'0 0.0
2017-May-14 22:28N 40°29' E 017°12'0 0.0
2017-May-14 21:55N 40°29' E 017°12'0 0.0
2017-May-14 21:25N 40°29' E 017°12'0 0.0
2017-May-14 20:55N 40°29' E 017°12'0 0.0
2017-May-14 20:13N 40°29' E 017°12'0 0.0
2017-May-14 19:58N 40°29' E 017°12'0 0.0
2017-May-14 19:22N 40°29' E 017°12'0 0.0
2017-May-14 18:40N 40°29' E 017°12'0 0.0
2017-May-14 18:25N 40°29' E 017°12'0 0.0
2017-May-14 17:58N 40°29' E 017°12'0 0.0
2017-May-14 17:28N 40°29' E 017°12'0 0.0
2017-May-14 16:58N 40°29' E 017°13'0 0.0
2017-May-14 16:28N 40°29' E 017°13'0 0.0
2017-May-14 15:58N 40°29' E 017°12'0 0.0
2017-May-14 15:25N 40°29' E 017°12'0 0.0
2017-May-14 14:55N 40°29' E 017°12'0 0.0
2017-May-14 14:10N 40°29' E 017°12'0 0.0
2017-May-14 13:28N 40°29' E 017°12'0 0.0
2017-May-14 12:58N 40°29' E 017°12'0 0.0
2017-May-14 12:25N 40°29' E 017°12'0 0.0
2017-May-14 11:55N 40°29' E 017°12'0 0.0
2017-May-14 11:25N 40°29' E 017°12'0 0.2
2017-May-14 10:59N 40°29' E 017°12'2 2.8
2017-May-14 10:23N 40°27' E 017°11'0 0.0
2017-May-14 09:38N 40°28' E 017°11'0 0.0
2017-May-14 09:29N 40°28' E 017°11'0 0.0
2017-May-14 08:59N 40°28' E 017°11'0 0.0
2017-May-14 08:20N 40°27' E 017°11'0 0.1
2017-May-14 07:59N 40°28' E 017°11'0 0.0
2017-May-14 07:29N 40°28' E 017°11'0 0.1
2017-May-14 06:59N 40°27' E 017°11'  

Dump ship's entire track history